Time;durP1;ratioP1;P1;durP2;ratioP2;P2;SDS_P1;SDS_P2;PMS_P1;PMS_P2;Temp;Humidity;BMP_temperature;BMP_pressure;BME280_temperature;BME280_humidity;BME280_pressure;Samples;Min_cycle;Max_cycle;Signal;HPM_P1;HPM_P2
2021/10/07 00:02:04;;;;;;;6.55;4.32;;;32.90;37.30;;;;;;5088016;28;20072;-64
2021/10/07 00:04:31;;;;;;;10.10;4.40;;;32.90;37.30;;;;;;5071616;28;20072;-63
2021/10/07 00:06:58;;;;;;;16.08;4.28;;;32.80;36.90;;;;;;5087863;28;20724;-64
2021/10/07 00:09:25;;;;;;;13.80;4.30;;;32.70;36.60;;;;;;5088929;28;20068;-67
2021/10/07 00:11:52;;;;;;;10.40;4.57;;;32.70;36.90;;;;;;5087714;28;20088;-62
2021/10/07 00:14:19;;;;;;;9.32;4.43;;;32.70;36.90;;;;;;5087517;28;20072;-66
2021/10/07 00:16:45;;;;;;;14.88;3.97;;;32.70;37.20;;;;;;5070378;28;20533;-66
2021/10/07 00:19:12;;;;;;;13.70;4.57;;;32.60;37.20;;;;;;5087871;28;20088;-63
2021/10/07 00:21:38;;;;;;;11.18;4.40;;;32.60;37.10;;;;;;5085384;28;20517;-65
2021/10/07 00:24:08;;;;;;;17.98;9.10;;;32.50;36.90;;;;;;5086729;28;20419;-63
2021/10/07 00:26:41;;;;;;;14.90;7.00;;;32.40;36.70;;;;;;5082782;28;20079;-66
2021/10/07 00:31:40;;;;;;;12.95;4.80;;;32.40;37.10;;;;;;5086532;28;20087;-64
2021/10/07 00:39:35;;;;;;;13.63;5.72;;;32.30;37.60;;;;;;5087083;28;20064;-66
2021/10/07 00:42:02;;;;;;;14.00;6.13;;;32.20;37.30;;;;;;5087015;28;20422;-63
2021/10/07 00:44:32;;;;;;;14.02;6.47;;;32.20;37.60;;;;;;5086883;28;20422;-67
2021/10/07 00:47:02;;;;;;;15.07;7.82;;;32.20;37.90;;;;;;5071246;28;20087;-65
2021/10/07 00:49:32;;;;;;;12.80;5.85;;;32.10;38.00;;;;;;5088510;28;20441;-68
2021/10/07 00:51:59;;;;;;;16.40;5.90;;;32.00;37.50;;;;;;5070614;28;20096;-64
2021/10/07 00:54:27;;;;;;;12.77;5.68;;;32.00;37.70;;;;;;5088351;28;20509;-66
2021/10/07 00:56:55;;;;;;;8.63;5.93;;;31.80;37.70;;;;;;5090613;28;20111;-67
2021/10/07 00:59:25;;;;;;;10.32;6.97;;;31.70;38.00;;;;;;5073477;28;20069;-63
2021/10/07 01:01:51;;;;;;;11.48;7.05;;;31.60;38.40;;;;;;5090034;28;20424;-66
2021/10/07 01:04:17;;;;;;;11.68;7.38;;;31.60;38.60;;;;;;5090294;28;20204;-66
2021/10/07 01:06:44;;;;;;;17.00;7.80;;;31.60;39.20;;;;;;5091820;28;20084;-66
2021/10/07 01:09:11;;;;;;;13.23;7.57;;;31.50;39.90;;;;;;5091139;28;20110;-65
2021/10/07 01:11:38;;;;;;;12.80;7.88;;;31.50;39.30;;;;;;5090701;28;20120;-63
2021/10/07 01:14:05;;;;;;;11.35;8.90;;;31.50;39.60;;;;;;5090868;28;20068;-64
2021/10/07 01:16:31;;;;;;;14.93;9.48;;;31.40;39.60;;;;;;5074618;28;20091;-67
2021/10/07 01:18:57;;;;;;;16.33;9.23;;;31.30;39.60;;;;;;5074344;28;20076;-65
2021/10/07 01:21:25;;;;;;;14.75;8.50;;;31.30;40.50;;;;;;5073879;28;20075;-69
2021/10/07 01:23:51;;;;;;;20.15;9.52;;;31.30;40.60;;;;;;5090225;28;20160;-66
2021/10/07 01:26:21;;;;;;;20.33;9.48;;;31.20;40.50;;;;;;5090693;28;20125;-63
2021/10/07 01:28:50;;;;;;;20.83;9.40;;;31.20;41.40;;;;;;5074198;28;20454;-64
2021/10/07 01:31:17;;;;;;;14.20;9.63;;;31.20;41.40;;;;;;5056806;28;20569;-65
2021/10/07 01:33:43;;;;;;;13.35;9.02;;;31.10;41.20;;;;;;5089553;28;20072;-64
2021/10/07 01:36:10;;;;;;;14.35;9.55;;;31.10;41.40;;;;;;5074145;28;20423;-65
2021/10/07 01:38:36;;;;;;;13.35;9.38;;;31.10;41.70;;;;;;5090102;28;20122;-63
2021/10/07 01:41:03;;;;;;;20.42;9.88;;;31.10;41.90;;;;;;5072700;28;20080;-66
2021/10/07 01:43:30;;;;;;;16.02;9.30;;;31.00;41.80;;;;;;5089999;28;20558;-64
2021/10/07 01:45:56;;;;;;;13.48;8.93;;;31.00;42.10;;;;;;5090124;28;20088;-65
2021/10/07 01:48:22;;;;;;;20.10;11.00;;;31.00;42.00;;;;;;5089648;28;20076;-65
2021/10/07 01:50:49;;;;;;;15.63;9.82;;;30.90;42.30;;;;;;5089997;28;20085;-65
2021/10/07 01:53:15;;;;;;;20.50;10.45;;;30.90;42.50;;;;;;5090308;28;20122;-65
2021/10/07 01:55:41;;;;;;;16.58;9.45;;;30.90;42.40;;;;;;5089804;28;20065;-66
2021/10/07 01:58:08;;;;;;;14.05;9.75;;;30.90;42.70;;;;;;5088817;28;20076;-63
2021/10/07 02:00:34;;;;;;;19.70;10.27;;;30.80;42.70;;;;;;5091646;28;20172;-64
2021/10/07 02:03:00;;;;;;;17.55;10.07;;;30.80;42.60;;;;;;5072701;28;20068;-64
2021/10/07 02:05:27;;;;;;;22.83;10.50;;;30.80;42.70;;;;;;5090222;28;20080;-66
2021/10/07 02:07:53;;;;;;;15.95;9.57;;;30.70;42.80;;;;;;5073058;28;20077;-64
2021/10/07 02:10:19;;;;;;;16.10;10.50;;;30.80;43.10;;;;;;5089719;28;20073;-65
2021/10/07 02:12:48;;;;;;;17.98;9.80;;;30.70;42.90;;;;;;5089486;28;20076;-64
2021/10/07 02:15:16;;;;;;;19.70;10.88;;;30.70;42.70;;;;;;5089100;28;20068;-64
2021/10/07 02:17:42;;;;;;;23.52;10.63;;;30.70;43.00;;;;;;5090398;28;20611;-63
2021/10/07 02:20:10;;;;;;;20.13;10.63;;;30.70;43.00;;;;;;5089345;28;20118;-64
2021/10/07 02:22:38;;;;;;;19.13;10.40;;;30.60;43.00;;;;;;5090364;28;20152;-65
2021/10/07 02:25:05;;;;;;;23.17;11.02;;;30.60;43.30;;;;;;5088863;28;20551;-63
2021/10/07 02:27:32;;;;;;;19.65;10.43;;;30.60;43.30;;;;;;5088014;28;20138;-63
2021/10/07 02:29:58;;;;;;;25.08;11.43;;;30.60;43.60;;;;;;5089303;28;20161;-65
2021/10/07 02:32:25;;;;;;;15.95;10.88;;;30.50;43.60;;;;;;5088798;28;20097;-66
2021/10/07 02:34:51;;;;;;;17.85;10.95;;;30.40;44.20;;;;;;5089758;28;20557;-66
2021/10/07 02:37:17;;;;;;;19.40;11.90;;;30.40;44.10;;;;;;5089114;28;20096;-65
2021/10/07 02:39:44;;;;;;;26.25;12.60;;;30.40;44.20;;;;;;5089870;28;20145;-65
2021/10/07 02:42:10;;;;;;;28.42;13.20;;;30.30;44.10;;;;;;5090250;28;20088;-64
2021/10/07 02:44:37;;;;;;;23.35;13.00;;;30.40;44.30;;;;;;5088465;28;20110;-64
2021/10/07 02:47:03;;;;;;;22.58;13.50;;;30.30;44.30;;;;;;5088988;28;20230;-63
2021/10/07 02:49:29;;;;;;;21.58;13.95;;;30.30;44.50;;;;;;5071316;28;20422;-65
2021/10/07 02:51:56;;;;;;;26.65;13.75;;;30.30;44.80;;;;;;5088301;28;20092;-64
2021/10/07 02:54:22;;;;;;;29.70;14.00;;;30.30;45.10;;;;;;5088687;28;20080;-65
2021/10/07 02:56:49;;;;;;;24.13;14.02;;;30.20;45.10;;;;;;5088870;28;20083;-61
2021/10/07 02:59:15;;;;;;;29.30;14.55;;;30.20;44.70;;;;;;5072177;28;20546;-62
2021/10/07 03:01:41;;;;;;;23.15;14.40;;;30.20;45.20;;;;;;5089378;28;20626;-62
2021/10/07 03:04:08;;;;;;;26.48;16.20;;;30.10;45.30;;;;;;5091570;28;20087;-62
2021/10/07 03:06:34;;;;;;;24.38;14.85;;;30.20;45.30;;;;;;5087519;28;20091;-63
2021/10/07 03:09:00;;;;;;;29.40;13.80;;;30.10;45.10;;;;;;5089426;28;20133;-60
2021/10/07 03:11:27;;;;;;;31.58;15.02;;;30.10;44.90;;;;;;5089106;28;20089;-61
2021/10/07 03:13:53;;;;;;;30.63;15.50;;;30.10;45.10;;;;;;5088535;28;20076;-64
2021/10/07 03:16:20;;;;;;;34.20;16.35;;;30.00;45.20;;;;;;5088435;28;20096;-65
2021/10/07 03:18:46;;;;;;;46.25;18.98;;;30.00;45.40;;;;;;5088837;28;20081;-65
2021/10/07 03:21:12;;;;;;;33.45;15.57;;;30.00;45.40;;;;;;5087723;28;20081;-66
2021/10/07 03:23:39;;;;;;;32.60;17.83;;;29.90;45.10;;;;;;5089201;28;20445;-68
2021/10/07 03:26:05;;;;;;;40.30;19.20;;;29.90;45.00;;;;;;5090317;28;20084;-63
2021/10/07 03:28:32;;;;;;;45.75;20.73;;;29.90;45.00;;;;;;5089056;28;20075;-65
2021/10/07 03:30:58;;;;;;;46.50;21.63;;;29.80;45.20;;;;;;5089787;28;20469;-61
2021/10/07 03:33:24;;;;;;;41.15;20.60;;;29.90;45.40;;;;;;5088695;28;20081;-62
2021/10/07 03:35:51;;;;;;;47.00;22.25;;;29.80;45.90;;;;;;5089297;28;20096;-66
2021/10/07 03:38:17;;;;;;;53.17;24.73;;;29.80;46.80;;;;;;5088084;28;20151;-66
2021/10/07 03:40:44;;;;;;;48.47;24.80;;;29.80;46.40;;;;;;5088626;28;20433;-60
2021/10/07 03:43:10;;;;;;;47.90;24.40;;;29.80;46.40;;;;;;5088621;28;20095;-59
2021/10/07 03:45:37;;;;;;;51.05;25.73;;;29.70;46.30;;;;;;5088180;28;20092;-65
2021/10/07 03:48:03;;;;;;;58.28;25.20;;;29.70;46.70;;;;;;5088788;28;20078;-65
2021/10/07 03:50:30;;;;;;;53.55;23.98;;;29.70;46.50;;;;;;5088838;28;20160;-65
2021/10/07 03:52:56;;;;;;;49.08;22.15;;;29.70;46.70;;;;;;5072338;28;20069;-65
2021/10/07 03:55:22;;;;;;;45.63;21.67;;;29.70;46.70;;;;;;5088084;28;20072;-66
2021/10/07 03:57:49;;;;;;;49.60;20.83;;;29.60;46.80;;;;;;5089557;28;20084;-64
2021/10/07 04:00:17;;;;;;;46.83;19.95;;;29.60;46.90;;;;;;5089034;28;20156;-61
2021/10/07 04:02:43;;;;;;;48.58;18.95;;;29.70;47.30;;;;;;5088571;28;20533;-66
2021/10/07 04:05:10;;;;;;;42.10;18.23;;;29.60;47.10;;;;;;5088688;28;20079;-61
2021/10/07 04:07:36;;;;;;;46.22;19.10;;;29.60;47.30;;;;;;5089629;28;20071;-67
2021/10/07 04:10:03;;;;;;;49.53;17.20;;;29.50;47.30;;;;;;5088737;28;20073;-66
2021/10/07 04:12:30;;;;;;;42.20;16.48;;;29.50;47.30;;;;;;5088795;28;20096;-67
2021/10/07 04:14:56;;;;;;;52.53;17.00;;;29.50;47.30;;;;;;5086216;28;20187;-64
2021/10/07 04:17:22;;;;;;;43.45;17.10;;;29.50;46.90;;;;;;5087829;28;20077;-64
2021/10/07 04:19:49;;;;;;;47.38;19.35;;;29.50;46.90;;;;;;5088556;28;20080;-63
2021/10/07 04:22:15;;;;;;;45.03;17.35;;;29.40;47.10;;;;;;5071642;28;20154;-65
2021/10/07 04:24:41;;;;;;;39.38;13.75;;;29.40;47.00;;;;;;5071065;28;20175;-63
2021/10/07 04:27:08;;;;;;;32.60;11.88;;;29.40;46.10;;;;;;5071972;28;20629;-65
2021/10/07 04:29:34;;;;;;;33.70;11.75;;;29.40;46.00;;;;;;5073215;28;20623;-64
2021/10/07 04:32:01;;;;;;;38.92;11.25;;;29.50;45.30;;;;;;5074830;28;20099;-66
2021/10/07 04:34:27;;;;;;;29.50;9.48;;;29.50;45.30;;;;;;5091839;28;20076;-64
2021/10/07 04:36:53;;;;;;;23.42;8.15;;;29.60;45.90;;;;;;5092427;28;20112;-63
2021/10/07 04:39:20;;;;;;;20.98;7.50;;;29.60;45.60;;;;;;5091059;28;20142;-65
2021/10/07 04:41:46;;;;;;;29.17;8.30;;;29.60;45.60;;;;;;5092970;28;20072;-63
2021/10/07 04:44:13;;;;;;;31.17;8.07;;;29.50;45.70;;;;;;5091021;28;20167;-64
2021/10/07 04:46:39;;;;;;;24.80;7.35;;;29.50;45.80;;;;;;5091696;28;20116;-65
2021/10/07 04:49:05;;;;;;;28.25;8.77;;;29.60;46.20;;;;;;5092301;28;20086;-68
2021/10/07 04:51:32;;;;;;;29.98;7.72;;;29.60;46.60;;;;;;5091870;28;20092;-63
2021/10/07 04:53:58;;;;;;;36.15;7.45;;;29.50;46.60;;;;;;5090974;28;20180;-64
2021/10/07 04:56:25;;;;;;;26.73;7.47;;;29.40;46.10;;;;;;5074697;28;20084;-64
2021/10/07 04:58:54;;;;;;;29.58;7.60;;;29.40;46.10;;;;;;5075491;28;20091;-63
2021/10/07 05:01:21;;;;;;;22.50;8.00;;;29.50;47.50;;;;;;5090174;28;20146;-63
2021/10/07 05:03:48;;;;;;;31.02;7.95;;;29.40;46.70;;;;;;5075031;28;20073;-63
2021/10/07 05:06:15;;;;;;;28.75;8.02;;;29.40;46.40;;;;;;5092740;28;20525;-65
2021/10/07 05:08:41;;;;;;;25.52;8.25;;;29.30;46.60;;;;;;5075585;28;20083;-65
2021/10/07 05:11:07;;;;;;;36.17;8.18;;;29.20;46.70;;;;;;5090945;28;20091;-63
2021/10/07 05:13:34;;;;;;;27.27;7.45;;;29.30;46.40;;;;;;5091337;28;20530;-64
2021/10/07 05:16:01;;;;;;;26.23;8.45;;;29.30;46.00;;;;;;5058548;28;20080;-64
2021/10/07 05:18:27;;;;;;;24.15;7.13;;;29.30;46.20;;;;;;5094924;28;20114;-64
2021/10/07 05:20:54;;;;;;;22.27;7.55;;;29.30;45.80;;;;;;5093020;28;20085;-64
2021/10/07 05:23:20;;;;;;;25.20;6.82;;;29.30;45.80;;;;;;5090631;28;20083;-64
2021/10/07 05:25:49;;;;;;;18.60;6.80;;;29.40;46.30;;;;;;5090762;28;20069;-65
2021/10/07 05:28:16;;;;;;;21.10;6.82;;;29.40;46.30;;;;;;5092155;28;20091;-64
2021/10/07 05:30:42;;;;;;;24.65;7.13;;;29.30;46.50;;;;;;5089442;28;20104;-63
2021/10/07 05:33:09;;;;;;;28.30;7.03;;;29.40;47.00;;;;;;5092259;28;20088;-64
2021/10/07 05:35:35;;;;;;;23.17;6.85;;;29.30;46.50;;;;;;5092063;28;20519;-62
2021/10/07 05:38:01;;;;;;;19.45;6.85;;;29.30;47.10;;;;;;5090228;28;20427;-63
2021/10/07 05:40:28;;;;;;;19.17;6.75;;;29.30;47.50;;;;;;5089466;28;20494;-67
2021/10/07 05:42:54;;;;;;;18.88;7.38;;;29.30;47.40;;;;;;5091877;28;20073;-64
2021/10/07 05:45:21;;;;;;;26.35;7.10;;;29.20;47.20;;;;;;5090425;28;20084;-63
2021/10/07 05:47:47;;;;;;;18.95;7.20;;;29.20;47.30;;;;;;5074425;28;20068;-63
2021/10/07 05:50:13;;;;;;;28.50;7.38;;;29.10;47.20;;;;;;5089931;28;20119;-64
2021/10/07 05:52:40;;;;;;;26.58;7.53;;;29.20;47.60;;;;;;5073492;28;20130;-66
2021/10/07 05:55:07;;;;;;;26.50;8.02;;;29.10;47.50;;;;;;5090231;28;20483;-65
2021/10/07 05:57:33;;;;;;;20.70;6.97;;;29.10;47.30;;;;;;5090434;28;20142;-65
2021/10/07 06:00:00;;;;;;;25.52;7.43;;;29.00;47.80;;;;;;5091770;28;20075;-67
2021/10/07 06:02:26;;;;;;;27.00;7.78;;;29.00;47.80;;;;;;5089967;28;20561;-64
2021/10/07 06:04:52;;;;;;;23.98;8.25;;;29.00;47.70;;;;;;5090436;28;20095;-64
2021/10/07 06:07:19;;;;;;;20.70;9.23;;;29.00;47.50;;;;;;5090353;28;20115;-64
2021/10/07 06:09:46;;;;;;;29.20;10.52;;;29.00;48.10;;;;;;5090127;28;20107;-63
2021/10/07 06:12:12;;;;;;;30.95;9.98;;;29.00;47.80;;;;;;5089793;28;20105;-63
2021/10/07 06:14:38;;;;;;;17.30;9.18;;;29.00;47.50;;;;;;5088407;28;20159;-64
2021/10/07 06:17:06;;;;;;;27.08;9.63;;;29.00;47.40;;;;;;5088896;28;20080;-64
2021/10/07 06:19:37;;;;;;;24.98;10.63;;;29.00;47.70;;;;;;5088563;28;20134;-64
2021/10/07 06:22:04;;;;;;;25.52;9.70;;;28.90;48.00;;;;;;5089950;28;20155;-66
2021/10/07 06:24:30;;;;;;;21.17;9.38;;;28.90;47.80;;;;;;5088393;28;20096;-64
2021/10/07 06:26:57;;;;;;;20.75;9.35;;;28.90;48.80;;;;;;5089687;28;20076;-63
2021/10/07 06:29:23;;;;;;;27.20;10.32;;;28.90;48.90;;;;;;5089228;28;20096;-63
2021/10/07 06:31:50;;;;;;;24.58;11.13;;;28.90;48.50;;;;;;5087055;28;20515;-64
2021/10/07 06:34:16;;;;;;;18.75;9.65;;;28.80;48.20;;;;;;5089279;28;20087;-64
2021/10/07 06:36:43;;;;;;;18.10;9.95;;;28.80;48.60;;;;;;5089414;28;20117;-63
2021/10/07 06:39:09;;;;;;;19.90;9.55;;;28.80;48.90;;;;;;5088825;28;20077;-63
2021/10/07 06:41:36;;;;;;;29.80;10.88;;;28.70;49.30;;;;;;5089644;28;20407;-63
2021/10/07 06:44:03;;;;;;;31.48;12.38;;;28.70;49.30;;;;;;5087978;28;20085;-63
2021/10/07 06:46:30;;;;;;;28.15;11.43;;;28.70;49.90;;;;;;5089128;28;20609;-63
2021/10/07 06:48:56;;;;;;;23.92;11.50;;;28.60;50.50;;;;;;5090239;28;20084;-64
2021/10/07 06:51:25;;;;;;;25.52;11.10;;;28.50;50.70;;;;;;5087420;28;20130;-65
2021/10/07 06:53:56;;;;;;;29.40;10.85;;;28.50;50.80;;;;;;5087064;28;20080;-64
2021/10/07 06:56:23;;;;;;;26.33;10.98;;;28.40;51.10;;;;;;5087495;28;20069;-66
2021/10/07 06:58:54;;;;;;;20.58;11.25;;;28.30;51.70;;;;;;5087743;28;20126;-65
2021/10/07 07:01:25;;;;;;;27.40;10.90;;;28.30;52.30;;;;;;5084743;28;20094;-65
2021/10/07 07:03:53;;;;;;;34.67;11.32;;;28.30;52.40;;;;;;5086624;28;20076;-65
2021/10/07 07:06:21;;;;;;;20.63;11.02;;;28.20;52.70;;;;;;5086713;28;20084;-62
2021/10/07 07:08:48;;;;;;;22.55;10.65;;;28.20;52.80;;;;;;5087535;28;20079;-63
2021/10/07 07:11:14;;;;;;;39.05;11.10;;;28.10;52.50;;;;;;5090663;28;20632;-60
2021/10/07 07:13:41;;;;;;;28.40;9.85;;;29.20;51.70;;;;;;5087306;28;20073;-64
2021/10/07 07:16:07;;;;;;;28.15;8.75;;;30.80;48.00;;;;;;5071379;28;20515;-57
2021/10/07 07:18:34;;;;;;;22.73;7.68;;;31.30;46.80;;;;;;5088557;28;20104;-62
2021/10/07 07:21:00;;;;;;;18.33;7.63;;;32.10;45.00;;;;;;5087357;28;20087;-61
2021/10/07 07:23:26;;;;;;;20.00;7.97;;;32.30;44.40;;;;;;5087012;28;20077;-63
2021/10/07 07:25:53;;;;;;;26.05;7.53;;;32.90;43.40;;;;;;5086854;28;20076;-57
2021/10/07 07:28:19;;;;;;;33.83;8.07;;;33.20;42.70;;;;;;5070498;28;20106;-54
2021/10/07 07:30:48;;;;;;;21.92;7.68;;;33.10;42.60;;;;;;5088548;28;20112;-58
2021/10/07 07:33:17;;;;;;;17.48;7.70;;;33.00;42.60;;;;;;5087981;28;20072;-55
2021/10/07 07:35:44;;;;;;;15.63;7.03;;;32.90;43.10;;;;;;5088597;28;20146;-57
2021/10/07 07:38:10;;;;;;;13.15;7.72;;;32.70;42.70;;;;;;5087988;28;20080;-55
2021/10/07 07:40:36;;;;;;;14.95;7.60;;;32.60;42.70;;;;;;5070697;28;20068;-55
2021/10/07 07:43:03;;;;;;;14.68;6.82;;;33.00;42.70;;;;;;5086714;28;20218;-59
2021/10/07 07:45:29;;;;;;;15.75;7.82;;;33.60;42.00;;;;;;5089113;28;20089;-56
2021/10/07 07:47:57;;;;;;;17.48;7.55;;;33.70;41.60;;;;;;5086853;28;20526;-57
2021/10/07 07:50:25;;;;;;;21.63;7.05;;;33.30;41.50;;;;;;5070717;28;20077;-56
2021/10/07 07:52:52;;;;;;;19.40;7.70;;;33.10;42.30;;;;;;5085556;28;20076;-59
2021/10/07 07:55:19;;;;;;;17.88;8.10;;;32.90;42.60;;;;;;5086851;28;20076;-58
2021/10/07 07:57:46;;;;;;;17.10;7.57;;;32.80;42.50;;;;;;5089268;28;20110;-55
2021/10/07 08:00:12;;;;;;;15.48;8.32;;;32.90;42.90;;;;;;5086321;28;20073;-56
2021/10/07 08:02:39;;;;;;;20.27;8.13;;;32.50;42.90;;;;;;5085614;28;20079;-57
2021/10/07 08:05:06;;;;;;;13.30;7.50;;;32.10;43.50;;;;;;5091369;28;20984;-55
2021/10/07 08:07:33;;;;;;;17.08;7.65;;;31.80;44.30;;;;;;5089120;28;20088;-60
2021/10/07 08:09:59;;;;;;;16.95;8.40;;;31.70;45.10;;;;;;5073442;28;20479;-64
2021/10/07 08:12:28;;;;;;;18.92;7.75;;;32.00;44.20;;;;;;5090787;28;20801;-63
2021/10/07 08:14:56;;;;;;;16.80;7.35;;;31.70;44.50;;;;;;5091687;28;20552;-65
2021/10/07 08:17:22;;;;;;;12.20;7.13;;;31.70;44.90;;;;;;5090950;28;20081;-66
2021/10/07 08:19:49;;;;;;;19.27;7.65;;;31.80;44.90;;;;;;5090556;28;20122;-63
2021/10/07 08:22:15;;;;;;;17.30;8.30;;;32.10;44.20;;;;;;5090940;28;20077;-66
2021/10/07 08:24:42;;;;;;;17.90;7.78;;;32.10;44.30;;;;;;5090781;28;20227;-66
2021/10/07 08:27:08;;;;;;;17.73;7.90;;;32.10;44.50;;;;;;5091430;28;20130;-63
2021/10/07 08:29:35;;;;;;;15.68;7.80;;;32.30;44.20;;;;;;5092123;28;20139;-64
2021/10/07 08:32:01;;;;;;;14.00;6.55;;;32.20;44.20;;;;;;5092356;28;20448;-63
2021/10/07 08:34:28;;;;;;;17.05;7.72;;;32.10;44.40;;;;;;5092582;28;20119;-64
2021/10/07 08:36:54;;;;;;;18.77;7.60;;;32.20;44.40;;;;;;5089726;28;20076;-63
2021/10/07 08:39:21;;;;;;;16.83;7.22;;;32.00;44.60;;;;;;5090318;28;20073;-65
2021/10/07 08:41:49;;;;;;;24.02;8.35;;;31.80;45.20;;;;;;5090918;28;20124;-63
2021/10/07 08:44:19;;;;;;;16.17;6.93;;;31.70;45.40;;;;;;5090199;28;20081;-63
2021/10/07 08:46:53;;;;;;;16.13;7.78;;;31.60;46.00;;;;;;5090892;28;20092;-64
2021/10/07 08:49:23;;;;;;;18.98;7.70;;;31.50;46.00;;;;;;5091314;28;20099;-66
2021/10/07 08:51:49;;;;;;;16.30;8.55;;;31.50;46.00;;;;;;5090818;28;20543;-65
2021/10/07 08:54:17;;;;;;;19.52;8.43;;;31.20;45.90;;;;;;5090182;28;20073;-65
2021/10/07 08:56:44;;;;;;;19.80;8.57;;;31.10;46.90;;;;;;5091904;28;20087;-63
2021/10/07 08:59:10;;;;;;;19.83;8.50;;;31.00;47.00;;;;;;5091607;28;20100;-63
2021/10/07 09:01:44;;;;;;;20.08;9.73;;;30.90;47.30;;;;;;5091363;28;20084;-63
2021/10/07 09:04:25;;;;;;;21.92;8.27;;;30.90;47.20;;;;;;5088625;28;20526;-64
2021/10/07 09:06:58;;;;;;;17.65;9.40;;;30.70;46.90;;;;;;5088770;28;20102;-63
2021/10/07 09:09:26;;;;;;;17.45;10.20;;;30.40;47.40;;;;;;5072831;28;20093;-66
2021/10/07 09:12:02;;;;;;;22.50;13.15;;;30.10;47.90;;;;;;5073879;28;20184;-66
2021/10/07 09:14:36;;;;;;;25.75;16.48;;;29.90;48.50;;;;;;5090627;28;20099;-62
2021/10/07 09:17:05;;;;;;;29.75;19.15;;;29.80;49.20;;;;;;5074459;28;20095;-61
2021/10/07 09:19:36;;;;;;;26.73;18.50;;;29.80;49.10;;;;;;5073980;28;20079;-61
2021/10/07 09:22:21;;;;;;;25.23;14.98;;;29.80;48.70;;;;;;5073743;28;20076;-64
2021/10/07 09:24:50;;;;;;;21.90;14.80;;;29.70;49.20;;;;;;5088628;28;20100;-63
2021/10/07 09:27:30;;;;;;;24.95;14.50;;;29.70;49.30;;;;;;5088954;28;20464;-62
2021/10/07 09:30:04;;;;;;;28.83;14.82;;;29.50;49.40;;;;;;5089323;28;20193;-66
2021/10/07 09:32:41;;;;;;;21.13;11.75;;;29.50;49.30;;;;;;5089069;28;20120;-65
2021/10/07 09:35:13;;;;;;;19.75;11.52;;;29.20;49.40;;;;;;5090271;28;20067;-65
2021/10/07 09:37:41;;;;;;;22.83;11.85;;;29.10;49.60;;;;;;5089050;28;20072;-63
2021/10/07 09:40:21;;;;;;;25.67;11.80;;;29.30;49.60;;;;;;5072962;28;20077;-66
2021/10/07 09:43:02;;;;;;;21.35;10.88;;;29.30;49.50;;;;;;5090596;28;20077;-63
2021/10/07 09:45:31;;;;;;;13.90;10.20;;;29.20;49.10;;;;;;5088003;28;20126;-66
2021/10/07 09:48:04;;;;;;;21.15;9.68;;;29.10;49.50;;;;;;5072935;28;20076;-66
2021/10/07 09:50:35;;;;;;;13.18;8.55;;;29.10;49.20;;;;;;5088881;28;20110;-62
2021/10/07 09:53:16;;;;;;;15.48;7.90;;;28.70;86.40;;;;;;5088331;28;20436;-66
2021/10/07 09:55:50;;;;;;;20.15;8.32;;;28.70;49.70;;;;;;5088459;28;20069;-65
2021/10/07 09:58:25;;;;;;;16.40;7.22;;;28.70;50.50;;;;;;5087929;28;20540;-66
2021/10/07 10:00:53;;;;;;;16.65;7.30;;;28.80;50.00;;;;;;5098486;28;20080;-65
2021/10/07 10:03:23;;;;;;;12.90;7.20;;;28.60;49.70;;;;;;5088448;28;20557;-63
2021/10/07 10:05:52;;;;;;;17.13;7.70;;;28.70;50.30;;;;;;5090753;28;20072;-60
2021/10/07 10:08:19;;;;;;;17.58;7.47;;;28.50;50.00;;;;;;5089658;28;20082;-61
2021/10/07 10:10:48;;;;;;;15.95;7.30;;;28.20;50.80;;;;;;5088651;28;20064;-65
2021/10/07 10:13:16;;;;;;;11.55;7.90;;;27.80;51.70;;;;;;5087706;28;20080;-66
2021/10/07 10:15:43;;;;;;;14.15;7.32;;;27.80;51.70;;;;;;5088260;28;20100;-66
2021/10/07 10:18:12;;;;;;;14.73;8.05;;;27.70;52.00;;;;;;5088290;28;20600;-62
2021/10/07 10:20:51;;;;;;;13.93;7.65;;;27.90;51.80;;;;;;5087960;28;20482;-64
2021/10/07 10:23:21;;;;;;;19.27;8.38;;;27.80;51.80;;;;;;5073775;28;20471;-63
2021/10/07 10:25:59;;;;;;;14.75;7.22;;;27.40;52.40;;;;;;5088365;28;20108;-65
2021/10/07 10:28:53;;;;;;;15.23;7.35;;;27.50;53.10;;;;;;5088850;28;20076;-66
2021/10/07 10:31:36;;;;;;;15.85;6.95;;;27.40;52.90;;;;;;5090274;28;20127;-62
2021/10/07 10:34:08;;;;;;;12.10;7.00;;;27.70;52.70;;;;;;5090681;28;20083;-65
2021/10/07 10:36:41;;;;;;;14.52;6.70;;;27.80;52.60;;;;;;5086821;28;20077;-64
2021/10/07 10:39:15;;;;;;;11.38;6.80;;;27.90;52.20;;;;;;5087062;28;20087;-60
2021/10/07 10:41:47;;;;;;;17.83;6.50;;;28.00;51.90;;;;;;5089123;28;20087;-63
2021/10/07 10:44:51;;;;;;;13.52;7.07;;;27.80;52.70;;;;;;5087348;28;20696;-65
2021/10/07 10:47:26;;;;;;;10.60;7.22;;;27.70;52.50;;;;;;5088138;28;20096;-62
2021/10/07 10:50:11;;;;;;;14.07;7.38;;;27.60;52.70;;;;;;5085870;28;20544;-65
2021/10/07 10:52:56;;;;;;;14.57;7.78;;;27.40;52.60;;;;;;5088055;28;20088;-62
2021/10/07 10:55:27;;;;;;;14.02;7.32;;;27.10;53.50;;;;;;5087183;28;20099;-66
2021/10/07 10:58:01;;;;;;;16.08;6.75;;;27.20;53.20;;;;;;5087881;28;20152;-66
2021/10/07 11:00:36;;;;;;;21.75;7.00;;;27.30;53.20;;;;;;5087626;28;20084;-65
2021/10/07 11:03:08;;;;;;;14.20;6.97;;;27.40;53.00;;;;;;5087671;28;20079;-66
2021/10/07 11:05:41;;;;;;;16.27;6.75;;;27.40;52.20;;;;;;5089024;28;20133;-61
2021/10/07 11:08:20;;;;;;;11.88;6.70;;;27.40;52.40;;;;;;5071948;28;20550;-63
2021/10/07 11:10:52;;;;;;;11.77;6.90;;;27.50;52.30;;;;;;5086385;28;20077;-60
2021/10/07 11:13:25;;;;;;;19.58;6.60;;;27.50;52.10;;;;;;5071951;28;20452;-64
2021/10/07 11:15:56;;;;;;;14.38;6.88;;;27.50;52.30;;;;;;5090362;28;20565;-66
2021/10/07 11:18:30;;;;;;;14.43;6.85;;;27.60;52.30;;;;;;5072527;28;20068;-61
2021/10/07 11:20:58;;;;;;;16.20;6.90;;;27.40;52.40;;;;;;5086472;28;20461;-63
2021/10/07 11:23:25;;;;;;;12.30;5.93;;;27.20;52.80;;;;;;5073823;28;20437;-63
2021/10/07 11:25:56;;;;;;;9.18;6.30;;;27.50;91.00;;;;;;5087615;28;20075;-64
2021/10/07 11:28:31;;;;;;;11.80;6.88;;;27.10;55.10;;;;;;5087105;28;20043;-59
2021/10/07 11:31:09;;;;;;;15.20;7.63;;;27.10;53.20;;;;;;5089108;28;20140;-65
2021/10/07 11:33:38;;;;;;;12.70;7.22;;;27.10;53.30;;;;;;5086028;28;20093;-67
2021/10/07 11:36:07;;;;;;;15.35;7.30;;;26.90;53.20;;;;;;5087390;28;20518;-61
2021/10/07 11:38:36;;;;;;;18.20;9.25;;;26.80;53.90;;;;;;5087042;28;20081;-64
2021/10/07 11:41:03;;;;;;;15.07;8.32;;;26.60;54.10;;;;;;5087286;28;20093;-63
2021/10/07 11:43:32;;;;;;;14.15;7.35;;;26.40;54.80;;;;;;5086985;28;20089;-60
2021/10/07 11:46:04;;;;;;;22.58;10.25;;;26.40;55.50;;;;;;5070798;28;20096;-63
2021/10/07 11:48:30;;;;;;;17.05;9.65;;;26.50;55.80;;;;;;5086611;28;20457;-64
2021/10/07 11:50:59;;;;;;;14.15;11.07;;;26.50;55.70;;;;;;5088003;28;20175;-64
2021/10/07 11:53:39;;;;;;;20.27;10.23;;;26.50;56.00;;;;;;5071045;28;20121;-59
2021/10/07 11:56:19;;;;;;;17.73;11.68;;;26.50;55.80;;;;;;5086373;28;20088;-66
2021/10/07 11:58:54;;;;;;;21.85;14.32;;;26.60;56.40;;;;;;5055256;28;20149;-64
2021/10/07 12:01:28;;;;;;;19.52;11.60;;;26.50;55.80;;;;;;5071608;28;20099;-64
2021/10/07 12:03:59;;;;;;;15.63;11.15;;;26.60;56.20;;;;;;5070765;28;20486;-63
2021/10/07 12:06:26;;;;;;;16.33;10.68;;;26.70;56.00;;;;;;5085559;28;20130;-60
2021/10/07 12:08:53;;;;;;;21.17;10.68;;;26.60;55.80;;;;;;5091855;28;20072;-62
2021/10/07 12:11:22;;;;;;;20.52;8.40;;;26.50;56.10;;;;;;5086979;28;20093;-63
2021/10/07 12:13:50;;;;;;;15.10;7.63;;;26.40;55.60;;;;;;5086086;28;20084;-61
2021/10/07 12:16:31;;;;;;;11.35;6.90;;;26.50;55.50;;;;;;5087048;28;20530;-64
2021/10/07 12:19:01;;;;;;;8.60;6.18;;;26.50;55.30;;;;;;5069761;28;20138;-65
2021/10/07 12:21:33;;;;;;;12.88;6.50;;;26.40;54.90;;;;;;5086868;28;20112;-59
2021/10/07 12:24:02;;;;;;;9.07;6.10;;;26.40;54.30;;;;;;5085522;28;20075;-65
2021/10/07 12:26:42;;;;;;;11.77;6.28;;;26.30;54.30;;;;;;5084916;28;20146;-63
2021/10/07 12:29:19;;;;;;;11.85;6.22;;;26.20;55.00;;;;;;5072186;28;20149;-65
2021/10/07 12:31:51;;;;;;;8.25;5.50;;;26.20;54.70;;;;;;5088537;28;20570;-62
2021/10/07 12:34:18;;;;;;;10.43;5.93;;;26.20;54.50;;;;;;5086390;28;20088;-66
2021/10/07 12:36:50;;;;;;;12.25;6.05;;;26.20;54.60;;;;;;5085873;28;20079;-67
2021/10/07 12:39:38;;;;;;;9.88;6.25;;;26.10;54.40;;;;;;5052779;28;20069;-66
2021/10/07 12:42:11;;;;;;;12.02;7.25;;;26.10;54.50;;;;;;5088948;28;20149;-67
2021/10/07 12:44:52;;;;;;;18.73;9.20;;;26.00;54.70;;;;;;5086159;28;20069;-67
2021/10/07 12:47:20;;;;;;;18.67;11.75;;;25.90;54.80;;;;;;5085678;28;20088;-63
2021/10/07 12:49:50;;;;;;;22.88;16.38;;;25.90;54.90;;;;;;5086798;28;20472;-63